UEEE 171700Z 05001MPS 9999 FEW050CB 03/02 Q1004 R23L/09//60 NOSIG RMK QFE744
QNH:(hPa/inHg/mmHg)1004 / 29.65 / 753
QFE:(hPa/inHg/mmHg)992 / 29.29 / 744
Temperature3
Dew Point2
Visibility> 10000
Weather
Cloud CoverFEW (5000);
Transition Height1000 m./3700 ft.
Transition LevelFL60
SQUAWK